KSTL METAR and TAF weather

Enter ICAO airport designator

Example: see airport list

Station Type Date Time Source
KSTL METAR 2016/05/26 07:51 UTC NOAA

KSTL 260751Z 19007KT 10SM FEW075 23/19 A2995 RMK AO2 SLP130 T02280194

Station Type Date Time Source
KSTL Decoded METAR 2016/05/26 07:51 UTC NOAA

LAMBERT-ST LOUIS INTERNATIONAL AIRPORT , MO, United States (KSTL) 38-45N 90-22W 171M
May 26, 2016 - 03:51 AM EDT / 2016.05.26 0751 UTC
Wind: from the S (190 degrees) at 8 MPH (7 KT):0
Visibility: 10 mile(s):0
Sky conditions: mostly clear
Temperature: 73.0 F (22.8 C)
Dew Point: 66.9 F (19.4 C)
Relative Humidity: 81%
Pressure (altimeter): 29.95 in. Hg (1014 hPa)
ob: KSTL 260751Z 19007KT 10SM FEW075 23/19 A2995 RMK AO2 SLP130 T02280194
cycle: 8

Station Type Date Time Source
KSTL TAF 2016/05/26 06:21 UTC NOAA

TAF KSTL 260520Z 2606/2712 19008KT P6SM SCT200
FM260900 19007KT P6SM BKN060
FM262200 18009KT P6SM SCT120
FM270800 19005KT P6SM -SHRA BKN040